sensor_id;sensor_type;location;lat;lon;timestamp;P1;durP1;ratioP1;P2;durP2;ratioP2
75311;SDS011;63906;55.686;37.532;2023-04-24T00:04:53;6.68;;;3.13;;
75311;SDS011;63906;55.686;37.532;2023-04-24T00:09:53;3.40;;;2.35;;
75311;SDS011;63906;55.686;37.532;2023-04-24T00:14:54;3.92;;;2.30;;
75311;SDS011;63906;55.686;37.532;2023-04-24T00:19:55;4.70;;;2.65;;
75311;SDS011;63906;55.686;37.532;2023-04-24T00:24:58;3.30;;;2.38;;
75311;SDS011;63906;55.686;37.532;2023-04-24T00:29:59;6.03;;;2.90;;
75311;SDS011;63906;55.686;37.532;2023-04-24T00:34:59;4.35;;;3.00;;
75311;SDS011;63906;55.686;37.532;2023-04-24T00:40:00;5.13;;;3.35;;
75311;SDS011;63906;55.686;37.532;2023-04-24T00:45:01;6.88;;;3.67;;
75311;SDS011;63906;55.686;37.532;2023-04-24T00:50:03;6.50;;;4.40;;
75311;SDS011;63906;55.686;37.532;2023-04-24T00:55:05;6.80;;;4.07;;
75311;SDS011;63906;55.686;37.532;2023-04-24T01:00:07;7.07;;;4.72;;
75311;SDS011;63906;55.686;37.532;2023-04-24T01:05:12;6.80;;;4.53;;
75311;SDS011;63906;55.686;37.532;2023-04-24T01:10:14;8.15;;;4.90;;
75311;SDS011;63906;55.686;37.532;2023-04-24T01:15:15;10.10;;;5.97;;
75311;SDS011;63906;55.686;37.532;2023-04-24T01:20:15;11.18;;;7.13;;
75311;SDS011;63906;55.686;37.532;2023-04-24T01:25:17;10.27;;;5.95;;
75311;SDS011;63906;55.686;37.532;2023-04-24T01:30:17;9.07;;;5.63;;
75311;SDS011;63906;55.686;37.532;2023-04-24T01:35:18;10.20;;;6.43;;
75311;SDS011;63906;55.686;37.532;2023-04-24T01:40:19;8.93;;;6.07;;
75311;SDS011;63906;55.686;37.532;2023-04-24T01:45:20;11.90;;;6.53;;
75311;SDS011;63906;55.686;37.532;2023-04-24T01:50:21;7.70;;;6.35;;
75311;SDS011;63906;55.686;37.532;2023-04-24T01:55:21;6.80;;;4.65;;
75311;SDS011;63906;55.686;37.532;2023-04-24T02:00:22;6.85;;;4.65;;
75311;SDS011;63906;55.686;37.532;2023-04-24T02:05:24;8.18;;;5.80;;
75311;SDS011;63906;55.686;37.532;2023-04-24T02:10:25;7.82;;;5.30;;
75311;SDS011;63906;55.686;37.532;2023-04-24T02:15:25;8.77;;;5.63;;
75311;SDS011;63906;55.686;37.532;2023-04-24T02:20:26;9.25;;;6.25;;
75311;SDS011;63906;55.686;37.532;2023-04-24T02:25:26;7.32;;;5.28;;
75311;SDS011;63906;55.686;37.532;2023-04-24T02:30:27;8.88;;;6.07;;
75311;SDS011;63906;55.686;37.532;2023-04-24T02:35:27;7.72;;;4.82;;
75311;SDS011;63906;55.686;37.532;2023-04-24T02:40:28;8.10;;;5.45;;
75311;SDS011;63906;55.686;37.532;2023-04-24T02:45:29;9.73;;;6.47;;
75311;SDS011;63906;55.686;37.532;2023-04-24T02:50:29;6.63;;;5.00;;
75311;SDS011;63906;55.686;37.532;2023-04-24T02:55:30;7.85;;;4.82;;
75311;SDS011;63906;55.686;37.532;2023-04-24T03:00:31;8.80;;;5.47;;
75311;SDS011;63906;55.686;37.532;2023-04-24T03:05:31;8.95;;;5.70;;
75311;SDS011;63906;55.686;37.532;2023-04-24T03:10:32;7.72;;;5.72;;
75311;SDS011;63906;55.686;37.532;2023-04-24T03:15:32;7.67;;;4.60;;
75311;SDS011;63906;55.686;37.532;2023-04-24T03:20:33;5.57;;;4.45;;
75311;SDS011;63906;55.686;37.532;2023-04-24T03:25:34;7.43;;;4.82;;
75311;SDS011;63906;55.686;37.532;2023-04-24T03:30:34;8.55;;;5.57;;
75311;SDS011;63906;55.686;37.532;2023-04-24T03:35:35;7.35;;;4.13;;
75311;SDS011;63906;55.686;37.532;2023-04-24T03:40:36;7.30;;;5.32;;
75311;SDS011;63906;55.686;37.532;2023-04-24T03:45:36;8.35;;;5.00;;
75311;SDS011;63906;55.686;37.532;2023-04-24T03:50:37;7.43;;;4.70;;
75311;SDS011;63906;55.686;37.532;2023-04-24T03:55:37;6.93;;;4.03;;
75311;SDS011;63906;55.686;37.532;2023-04-24T04:00:38;7.10;;;4.53;;
75311;SDS011;63906;55.686;37.532;2023-04-24T04:05:40;7.13;;;5.07;;
75311;SDS011;63906;55.686;37.532;2023-04-24T04:10:40;8.25;;;5.28;;
75311;SDS011;63906;55.686;37.532;2023-04-24T04:15:41;7.50;;;4.47;;
75311;SDS011;63906;55.686;37.532;2023-04-24T04:20:41;7.18;;;5.80;;
75311;SDS011;63906;55.686;37.532;2023-04-24T04:25:42;7.53;;;5.05;;
75311;SDS011;63906;55.686;37.532;2023-04-24T04:30:42;7.30;;;4.78;;
75311;SDS011;63906;55.686;37.532;2023-04-24T04:35:43;6.43;;;4.45;;
75311;SDS011;63906;55.686;37.532;2023-04-24T04:40:44;7.25;;;4.90;;
75311;SDS011;63906;55.686;37.532;2023-04-24T04:45:45;7.82;;;5.03;;
75311;SDS011;63906;55.686;37.532;2023-04-24T04:50:46;8.15;;;4.93;;
75311;SDS011;63906;55.686;37.532;2023-04-24T04:55:46;6.65;;;4.90;;
75311;SDS011;63906;55.686;37.532;2023-04-24T05:00:47;8.77;;;4.45;;
75311;SDS011;63906;55.686;37.532;2023-04-24T05:05:48;8.07;;;4.93;;
75311;SDS011;63906;55.686;37.532;2023-04-24T05:10:49;8.20;;;5.63;;
75311;SDS011;63906;55.686;37.532;2023-04-24T05:15:49;9.45;;;5.03;;
75311;SDS011;63906;55.686;37.532;2023-04-24T05:20:50;7.13;;;4.97;;
75311;SDS011;63906;55.686;37.532;2023-04-24T05:25:51;7.63;;;4.28;;
75311;SDS011;63906;55.686;37.532;2023-04-24T05:30:51;8.25;;;5.03;;
75311;SDS011;63906;55.686;37.532;2023-04-24T05:35:52;6.43;;;4.53;;
75311;SDS011;63906;55.686;37.532;2023-04-24T05:40:52;8.88;;;6.05;;
75311;SDS011;63906;55.686;37.532;2023-04-24T05:45:53;7.95;;;4.43;;
75311;SDS011;63906;55.686;37.532;2023-04-24T05:50:53;10.55;;;4.63;;
75311;SDS011;63906;55.686;37.532;2023-04-24T05:55:54;10.88;;;5.20;;
75311;SDS011;63906;55.686;37.532;2023-04-24T06:00:55;9.30;;;4.80;;
75311;SDS011;63906;55.686;37.532;2023-04-24T06:05:56;8.80;;;5.85;;
75311;SDS011;63906;55.686;37.532;2023-04-24T06:10:56;9.65;;;5.13;;
75311;SDS011;63906;55.686;37.532;2023-04-24T06:15:56;7.25;;;5.70;;
75311;SDS011;63906;55.686;37.532;2023-04-24T06:20:57;7.95;;;5.40;;
75311;SDS011;63906;55.686;37.532;2023-04-24T06:25:58;8.35;;;5.05;;
75311;SDS011;63906;55.686;37.532;2023-04-24T06:30:59;7.57;;;4.70;;
75311;SDS011;63906;55.686;37.532;2023-04-24T06:35:59;7.75;;;4.57;;
75311;SDS011;63906;55.686;37.532;2023-04-24T06:41:00;7.40;;;4.45;;
75311;SDS011;63906;55.686;37.532;2023-04-24T06:46:00;5.15;;;3.55;;
75311;SDS011;63906;55.686;37.532;2023-04-24T06:51:03;9.02;;;4.72;;
75311;SDS011;63906;55.686;37.532;2023-04-24T06:56:04;8.73;;;4.75;;
75311;SDS011;63906;55.686;37.532;2023-04-24T07:01:04;4.95;;;3.53;;
75311;SDS011;63906;55.686;37.532;2023-04-24T07:06:05;5.88;;;4.32;;
75311;SDS011;63906;55.686;37.532;2023-04-24T07:11:06;9.23;;;5.50;;
75311;SDS011;63906;55.686;37.532;2023-04-24T07:16:06;8.27;;;5.50;;
75311;SDS011;63906;55.686;37.532;2023-04-24T07:21:07;4.97;;;3.75;;
75311;SDS011;63906;55.686;37.532;2023-04-24T07:26:08;6.53;;;4.20;;
75311;SDS011;63906;55.686;37.532;2023-04-24T07:31:08;8.18;;;4.30;;
75311;SDS011;63906;55.686;37.532;2023-04-24T07:36:10;6.97;;;4.60;;
75311;SDS011;63906;55.686;37.532;2023-04-24T07:41:15;4.20;;;3.25;;
75311;SDS011;63906;55.686;37.532;2023-04-24T07:46:16;5.97;;;3.15;;
75311;SDS011;63906;55.686;37.532;2023-04-24T07:51:16;4.90;;;4.05;;
75311;SDS011;63906;55.686;37.532;2023-04-24T07:56:17;5.15;;;3.47;;
75311;SDS011;63906;55.686;37.532;2023-04-24T08:01:18;6.15;;;3.90;;
75311;SDS011;63906;55.686;37.532;2023-04-24T08:06:18;4.57;;;3.27;;
75311;SDS011;63906;55.686;37.532;2023-04-24T08:11:19;5.55;;;3.85;;
75311;SDS011;63906;55.686;37.532;2023-04-24T08:16:20;11.63;;;3.75;;
75311;SDS011;63906;55.686;37.532;2023-04-24T08:21:20;7.18;;;4.32;;
75311;SDS011;63906;55.686;37.532;2023-04-24T08:26:21;5.10;;;4.00;;
75311;SDS011;63906;55.686;37.532;2023-04-24T08:31:22;7.50;;;3.28;;
75311;SDS011;63906;55.686;37.532;2023-04-24T08:36:25;5.68;;;4.30;;
75311;SDS011;63906;55.686;37.532;2023-04-24T08:41:26;6.80;;;3.50;;
75311;SDS011;63906;55.686;37.532;2023-04-24T08:46:27;5.03;;;3.75;;
75311;SDS011;63906;55.686;37.532;2023-04-24T08:51:29;5.65;;;3.85;;
75311;SDS011;63906;55.686;37.532;2023-04-24T08:56:31;5.63;;;3.65;;
75311;SDS011;63906;55.686;37.532;2023-04-24T09:01:34;10.10;;;4.10;;
75311;SDS011;63906;55.686;37.532;2023-04-24T09:06:35;5.30;;;3.70;;
75311;SDS011;63906;55.686;37.532;2023-04-24T09:11:36;6.32;;;4.10;;
75311;SDS011;63906;55.686;37.532;2023-04-24T09:16:37;5.13;;;3.05;;
75311;SDS011;63906;55.686;37.532;2023-04-24T09:21:37;5.00;;;3.13;;
75311;SDS011;63906;55.686;37.532;2023-04-24T09:26:38;3.50;;;3.20;;
75311;SDS011;63906;55.686;37.532;2023-04-24T09:31:39;6.22;;;3.55;;
75311;SDS011;63906;55.686;37.532;2023-04-24T09:36:41;7.03;;;3.65;;
75311;SDS011;63906;55.686;37.532;2023-04-24T09:41:52;4.13;;;3.30;;
75311;SDS011;63906;55.686;37.532;2023-04-24T09:46:59;4.55;;;2.85;;
75311;SDS011;63906;55.686;37.532;2023-04-24T09:52:04;5.20;;;3.03;;
75311;SDS011;63906;55.686;37.532;2023-04-24T09:57:09;4.70;;;3.50;;
75311;SDS011;63906;55.686;37.532;2023-04-24T10:02:17;4.15;;;3.22;;
75311;SDS011;63906;55.686;37.532;2023-04-24T10:07:19;5.57;;;3.50;;
75311;SDS011;63906;55.686;37.532;2023-04-24T10:12:20;5.78;;;3.75;;
75311;SDS011;63906;55.686;37.532;2023-04-24T10:17:21;4.30;;;3.67;;
75311;SDS011;63906;55.686;37.532;2023-04-24T10:22:24;3.78;;;3.28;;
75311;SDS011;63906;55.686;37.532;2023-04-24T10:27:26;11.88;;;7.60;;
75311;SDS011;63906;55.686;37.532;2023-04-24T10:32:28;7.05;;;4.30;;
75311;SDS011;63906;55.686;37.532;2023-04-24T10:37:29;4.78;;;4.10;;
75311;SDS011;63906;55.686;37.532;2023-04-24T10:42:40;4.80;;;4.13;;
75311;SDS011;63906;55.686;37.532;2023-04-24T10:47:42;5.07;;;3.97;;
75311;SDS011;63906;55.686;37.532;2023-04-24T10:52:50;4.57;;;4.18;;
75311;SDS011;63906;55.686;37.532;2023-04-24T10:58:02;4.03;;;3.20;;
75311;SDS011;63906;55.686;37.532;2023-04-24T11:03:04;3.72;;;3.17;;
75311;SDS011;63906;55.686;37.532;2023-04-24T11:13:15;4.78;;;3.22;;
75311;SDS011;63906;55.686;37.532;2023-04-24T11:18:16;4.50;;;3.13;;
75311;SDS011;63906;55.686;37.532;2023-04-24T11:23:17;5.10;;;3.22;;
75311;SDS011;63906;55.686;37.532;2023-04-24T11:28:18;3.63;;;3.05;;
75311;SDS011;63906;55.686;37.532;2023-04-24T11:33:19;4.93;;;3.38;;
75311;SDS011;63906;55.686;37.532;2023-04-24T11:38:21;3.45;;;2.85;;
75311;SDS011;63906;55.686;37.532;2023-04-24T11:43:22;4.47;;;3.35;;
75311;SDS011;63906;55.686;37.532;2023-04-24T11:48:23;4.63;;;2.97;;
75311;SDS011;63906;55.686;37.532;2023-04-24T11:53:23;7.72;;;6.63;;
75311;SDS011;63906;55.686;37.532;2023-04-24T11:58:24;6.95;;;4.65;;
75311;SDS011;63906;55.686;37.532;2023-04-24T12:03:26;6.93;;;4.20;;
75311;SDS011;63906;55.686;37.532;2023-04-24T12:08:27;6.53;;;4.80;;
75311;SDS011;63906;55.686;37.532;2023-04-24T12:13:29;4.32;;;3.25;;
75311;SDS011;63906;55.686;37.532;2023-04-24T12:23:37;4.40;;;3.10;;
75311;SDS011;63906;55.686;37.532;2023-04-24T12:28:38;3.53;;;2.88;;
75311;SDS011;63906;55.686;37.532;2023-04-24T12:33:39;5.22;;;3.60;;
75311;SDS011;63906;55.686;37.532;2023-04-24T12:38:41;4.57;;;3.10;;
75311;SDS011;63906;55.686;37.532;2023-04-24T12:43:52;3.75;;;3.10;;
75311;SDS011;63906;55.686;37.532;2023-04-24T12:48:53;3.65;;;3.13;;
75311;SDS011;63906;55.686;37.532;2023-04-24T12:53:54;2.70;;;2.40;;
75311;SDS011;63906;55.686;37.532;2023-04-24T12:58:54;7.50;;;3.80;;
75311;SDS011;63906;55.686;37.532;2023-04-24T13:03:55;6.07;;;3.00;;
75311;SDS011;63906;55.686;37.532;2023-04-24T13:08:55;3.78;;;3.30;;
75311;SDS011;63906;55.686;37.532;2023-04-24T13:13:57;3.00;;;2.75;;
75311;SDS011;63906;55.686;37.532;2023-04-24T13:18:58;4.07;;;3.30;;
75311;SDS011;63906;55.686;37.532;2023-04-24T13:23:59;3.63;;;2.90;;
75311;SDS011;63906;55.686;37.532;2023-04-24T13:28:59;3.85;;;2.78;;
75311;SDS011;63906;55.686;37.532;2023-04-24T13:34:00;3.15;;;2.78;;
75311;SDS011;63906;55.686;37.532;2023-04-24T13:39:00;5.35;;;3.45;;
75311;SDS011;63906;55.686;37.532;2023-04-24T13:44:02;6.72;;;3.30;;
75311;SDS011;63906;55.686;37.532;2023-04-24T13:49:03;5.20;;;2.78;;
75311;SDS011;63906;55.686;37.532;2023-04-24T13:54:04;3.28;;;2.50;;
75311;SDS011;63906;55.686;37.532;2023-04-24T13:59:05;4.65;;;2.95;;
75311;SDS011;63906;55.686;37.532;2023-04-24T14:04:05;3.08;;;2.70;;
75311;SDS011;63906;55.686;37.532;2023-04-24T14:09:06;4.95;;;3.13;;
75311;SDS011;63906;55.686;37.532;2023-04-24T14:14:06;5.25;;;3.25;;
75311;SDS011;63906;55.686;37.532;2023-04-24T14:24:08;3.50;;;3.20;;
75311;SDS011;63906;55.686;37.532;2023-04-24T14:29:09;3.97;;;3.05;;
75311;SDS011;63906;55.686;37.532;2023-04-24T14:34:09;6.32;;;4.38;;
75311;SDS011;63906;55.686;37.532;2023-04-24T14:39:10;7.82;;;5.43;;
75311;SDS011;63906;55.686;37.532;2023-04-24T14:44:11;4.70;;;3.03;;
75311;SDS011;63906;55.686;37.532;2023-04-24T14:49:12;4.30;;;2.80;;
75311;SDS011;63906;55.686;37.532;2023-04-24T14:54:12;9.60;;;3.67;;
75311;SDS011;63906;55.686;37.532;2023-04-24T14:59:14;4.03;;;2.88;;
75311;SDS011;63906;55.686;37.532;2023-04-24T15:04:14;7.78;;;3.40;;
75311;SDS011;63906;55.686;37.532;2023-04-24T15:09:15;7.43;;;4.13;;
75311;SDS011;63906;55.686;37.532;2023-04-24T15:14:16;4.97;;;3.38;;
75311;SDS011;63906;55.686;37.532;2023-04-24T15:24:17;6.80;;;3.07;;
75311;SDS011;63906;55.686;37.532;2023-04-24T15:29:18;4.18;;;3.13;;
75311;SDS011;63906;55.686;37.532;2023-04-24T15:34:18;5.40;;;2.45;;
75311;SDS011;63906;55.686;37.532;2023-04-24T15:39:21;5.65;;;2.85;;
75311;SDS011;63906;55.686;37.532;2023-04-24T15:44:23;4.30;;;2.60;;
75311;SDS011;63906;55.686;37.532;2023-04-24T15:49:24;4.88;;;2.60;;
75311;SDS011;63906;55.686;37.532;2023-04-24T15:54:25;5.28;;;3.03;;
75311;SDS011;63906;55.686;37.532;2023-04-24T15:59:25;6.53;;;2.95;;
75311;SDS011;63906;55.686;37.532;2023-04-24T16:04:27;3.35;;;2.60;;
75311;SDS011;63906;55.686;37.532;2023-04-24T16:09:28;7.97;;;2.78;;
75311;SDS011;63906;55.686;37.532;2023-04-24T16:14:28;7.82;;;2.92;;
75311;SDS011;63906;55.686;37.532;2023-04-24T16:19:29;9.20;;;3.15;;
75311;SDS011;63906;55.686;37.532;2023-04-24T16:24:30;7.93;;;2.70;;
75311;SDS011;63906;55.686;37.532;2023-04-24T16:29:31;6.68;;;3.83;;
75311;SDS011;63906;55.686;37.532;2023-04-24T16:34:32;7.43;;;3.45;;
75311;SDS011;63906;55.686;37.532;2023-04-24T16:39:32;5.03;;;3.10;;
75311;SDS011;63906;55.686;37.532;2023-04-24T16:44:34;7.93;;;4.10;;
75311;SDS011;63906;55.686;37.532;2023-04-24T16:49:34;6.27;;;4.27;;
75311;SDS011;63906;55.686;37.532;2023-04-24T16:54:35;4.93;;;3.28;;
75311;SDS011;63906;55.686;37.532;2023-04-24T16:59:36;5.38;;;3.63;;
75311;SDS011;63906;55.686;37.532;2023-04-24T17:04:37;6.93;;;3.47;;
75311;SDS011;63906;55.686;37.532;2023-04-24T17:09:38;7.20;;;3.97;;
75311;SDS011;63906;55.686;37.532;2023-04-24T17:14:38;5.90;;;3.78;;
75311;SDS011;63906;55.686;37.532;2023-04-24T17:19:39;8.13;;;5.05;;
75311;SDS011;63906;55.686;37.532;2023-04-24T17:24:39;10.27;;;4.20;;
75311;SDS011;63906;55.686;37.532;2023-04-24T17:29:40;4.97;;;4.15;;
75311;SDS011;63906;55.686;37.532;2023-04-24T17:34:41;5.30;;;3.45;;
75311;SDS011;63906;55.686;37.532;2023-04-24T17:39:41;6.47;;;3.42;;
75311;SDS011;63906;55.686;37.532;2023-04-24T17:44:42;7.72;;;4.07;;
75311;SDS011;63906;55.686;37.532;2023-04-24T17:49:43;8.65;;;3.70;;
75311;SDS011;63906;55.686;37.532;2023-04-24T17:54:43;5.00;;;3.38;;
75311;SDS011;63906;55.686;37.532;2023-04-24T17:59:44;5.50;;;3.83;;
75311;SDS011;63906;55.686;37.532;2023-04-24T18:04:45;6.00;;;3.17;;
75311;SDS011;63906;55.686;37.532;2023-04-24T18:09:45;3.92;;;3.17;;
75311;SDS011;63906;55.686;37.532;2023-04-24T18:14:46;9.77;;;3.20;;
75311;SDS011;63906;55.686;37.532;2023-04-24T18:19:46;8.73;;;3.85;;
75311;SDS011;63906;55.686;37.532;2023-04-24T18:24:47;10.55;;;6.50;;
75311;SDS011;63906;55.686;37.532;2023-04-24T18:29:47;6.53;;;4.28;;
75311;SDS011;63906;55.686;37.532;2023-04-24T18:34:48;6.35;;;3.38;;
75311;SDS011;63906;55.686;37.532;2023-04-24T18:39:48;5.53;;;3.58;;
75311;SDS011;63906;55.686;37.532;2023-04-24T18:44:49;5.65;;;4.07;;
75311;SDS011;63906;55.686;37.532;2023-04-24T18:49:50;5.07;;;3.72;;
75311;SDS011;63906;55.686;37.532;2023-04-24T18:54:51;7.05;;;4.10;;
75311;SDS011;63906;55.686;37.532;2023-04-24T18:59:51;5.80;;;3.28;;
75311;SDS011;63906;55.686;37.532;2023-04-24T19:04:52;6.95;;;4.65;;
75311;SDS011;63906;55.686;37.532;2023-04-24T19:09:52;4.55;;;3.53;;
75311;SDS011;63906;55.686;37.532;2023-04-24T19:14:53;4.10;;;3.22;;
75311;SDS011;63906;55.686;37.532;2023-04-24T19:19:56;8.05;;;4.30;;
75311;SDS011;63906;55.686;37.532;2023-04-24T19:24:56;8.95;;;4.72;;
75311;SDS011;63906;55.686;37.532;2023-04-24T19:30:00;7.68;;;3.20;;
75311;SDS011;63906;55.686;37.532;2023-04-24T19:35:00;7.28;;;3.65;;
75311;SDS011;63906;55.686;37.532;2023-04-24T19:40:01;9.63;;;4.10;;
75311;SDS011;63906;55.686;37.532;2023-04-24T19:45:02;5.85;;;3.65;;
75311;SDS011;63906;55.686;37.532;2023-04-24T19:50:03;5.65;;;3.53;;
75311;SDS011;63906;55.686;37.532;2023-04-24T19:55:04;6.15;;;3.78;;
75311;SDS011;63906;55.686;37.532;2023-04-24T20:00:05;6.32;;;2.90;;
75311;SDS011;63906;55.686;37.532;2023-04-24T20:05:07;5.82;;;3.72;;
75311;SDS011;63906;55.686;37.532;2023-04-24T20:10:08;6.97;;;3.60;;
75311;SDS011;63906;55.686;37.532;2023-04-24T20:15:09;6.55;;;3.92;;
75311;SDS011;63906;55.686;37.532;2023-04-24T20:20:10;4.13;;;2.75;;
75311;SDS011;63906;55.686;37.532;2023-04-24T20:25:11;4.50;;;2.90;;
75311;SDS011;63906;55.686;37.532;2023-04-24T20:30:14;5.85;;;3.10;;
75311;SDS011;63906;55.686;37.532;2023-04-24T20:35:15;6.47;;;3.30;;
75311;SDS011;63906;55.686;37.532;2023-04-24T20:40:15;8.98;;;4.22;;
75311;SDS011;63906;55.686;37.532;2023-04-24T20:45:18;7.85;;;5.00;;
75311;SDS011;63906;55.686;37.532;2023-04-24T20:50:19;9.00;;;5.03;;
75311;SDS011;63906;55.686;37.532;2023-04-24T20:55:20;9.73;;;4.50;;
75311;SDS011;63906;55.686;37.532;2023-04-24T21:00:20;8.35;;;3.63;;
75311;SDS011;63906;55.686;37.532;2023-04-24T21:05:21;6.38;;;4.22;;
75311;SDS011;63906;55.686;37.532;2023-04-24T21:10:22;7.28;;;4.05;;
75311;SDS011;63906;55.686;37.532;2023-04-24T21:15:24;6.85;;;4.57;;
75311;SDS011;63906;55.686;37.532;2023-04-24T21:20:24;7.78;;;4.75;;
75311;SDS011;63906;55.686;37.532;2023-04-24T21:25:25;7.85;;;4.30;;
75311;SDS011;63906;55.686;37.532;2023-04-24T21:30:27;8.45;;;4.93;;
75311;SDS011;63906;55.686;37.532;2023-04-24T21:35:28;6.57;;;4.00;;
75311;SDS011;63906;55.686;37.532;2023-04-24T21:40:28;6.40;;;3.50;;
75311;SDS011;63906;55.686;37.532;2023-04-24T21:45:29;6.88;;;4.57;;
75311;SDS011;63906;55.686;37.532;2023-04-24T21:50:30;10.82;;;5.72;;
75311;SDS011;63906;55.686;37.532;2023-04-24T21:55:30;9.43;;;4.63;;
75311;SDS011;63906;55.686;37.532;2023-04-24T22:00:31;8.32;;;4.43;;
75311;SDS011;63906;55.686;37.532;2023-04-24T22:05:32;8.30;;;4.40;;
75311;SDS011;63906;55.686;37.532;2023-04-24T22:10:33;5.95;;;4.20;;
75311;SDS011;63906;55.686;37.532;2023-04-24T22:15:34;5.35;;;3.47;;
75311;SDS011;63906;55.686;37.532;2023-04-24T22:20:35;9.77;;;5.13;;
75311;SDS011;63906;55.686;37.532;2023-04-24T22:25:35;5.07;;;2.45;;
75311;SDS011;63906;55.686;37.532;2023-04-24T22:30:36;7.60;;;4.20;;
75311;SDS011;63906;55.686;37.532;2023-04-24T22:35:37;7.15;;;4.10;;
75311;SDS011;63906;55.686;37.532;2023-04-24T22:40:37;10.32;;;4.40;;
75311;SDS011;63906;55.686;37.532;2023-04-24T22:45:39;5.78;;;4.07;;
75311;SDS011;63906;55.686;37.532;2023-04-24T22:50:40;6.38;;;3.50;;
75311;SDS011;63906;55.686;37.532;2023-04-24T22:55:41;5.90;;;3.28;;
75311;SDS011;63906;55.686;37.532;2023-04-24T23:00:42;9.35;;;4.00;;
75311;SDS011;63906;55.686;37.532;2023-04-24T23:05:43;6.85;;;3.78;;
75311;SDS011;63906;55.686;37.532;2023-04-24T23:10:43;4.75;;;2.83;;
75311;SDS011;63906;55.686;37.532;2023-04-24T23:15:44;8.27;;;3.80;;
75311;SDS011;63906;55.686;37.532;2023-04-24T23:20:44;6.53;;;3.42;;
75311;SDS011;63906;55.686;37.532;2023-04-24T23:25:45;7.47;;;3.60;;
75311;SDS011;63906;55.686;37.532;2023-04-24T23:30:46;6.28;;;2.97;;
75311;SDS011;63906;55.686;37.532;2023-04-24T23:35:46;6.68;;;3.45;;
75311;SDS011;63906;55.686;37.532;2023-04-24T23:40:47;5.03;;;3.35;;
75311;SDS011;63906;55.686;37.532;2023-04-24T23:45:49;8.77;;;3.50;;
75311;SDS011;63906;55.686;37.532;2023-04-24T23:50:50;4.63;;;2.85;;
75311;SDS011;63906;55.686;37.532;2023-04-24T23:55:50;6.70;;;3.78;;
